Ibitiara, Brazil
Current Conditions -  °F | °C
As of 1:00 PM on Thursday 23 Oct 2014 (Local Time) from SBQV Reporting Station
Drizzle Drizzle  
Wind Chill: 66°   Ceiling: 700
Heat Index: 66°   Visibility: 5mi
Dew Point: 64°   Wind: 12mph
Humidity: 94%   Direction: 130°SE
Pressure: 30.15"   Gusts: NA
Location:  12.65°S, 42.22°W
Report Text: SBQV 231600Z 13010KT 8000 -DZ SCT006 BKN007 19/18 Q1021
Loading
Personal Weather Stations






























Interactive Weather Map
Tropical Storm Tracking
New forecast layout! Learn more

10-Day Weather Forecast

Advertisements
Track Severe Weather on mobile